sensor_id;sensor_type;location;lat;lon;timestamp;pressure;altitude;pressure_sealevel;temperature;humidity
42621;BME280;28252;53.336;-6.298;2023-03-18T00:00:15;99446.78;;;22.45;100.00
42621;BME280;28252;53.336;-6.298;2023-03-18T00:00:49;99445.13;;;22.44;100.00
42621;BME280;28252;53.336;-6.298;2023-03-18T00:01:27;99442.44;;;22.44;100.00
42621;BME280;28252;53.336;-6.298;2023-03-18T00:02:00;99440.75;;;22.43;100.00
42621;BME280;28252;53.336;-6.298;2023-03-18T00:02:34;99447.22;;;22.42;100.00
42621;BME280;28252;53.336;-6.298;2023-03-18T00:03:07;99441.78;;;22.42;100.00
42621;BME280;28252;53.336;-6.298;2023-03-18T00:03:42;99433.66;;;22.42;100.00
42621;BME280;28252;53.336;-6.298;2023-03-18T00:04:18;99440.97;;;22.42;100.00
42621;BME280;28252;53.336;-6.298;2023-03-18T00:04:59;99440.13;;;22.41;100.00
42621;BME280;28252;53.336;-6.298;2023-03-18T00:05:35;99447.22;;;22.42;100.00
42621;BME280;28252;53.336;-6.298;2023-03-18T00:06:12;99441.78;;;22.42;100.00
42621;BME280;28252;53.336;-6.298;2023-03-18T00:06:46;99440.97;;;22.42;100.00
42621;BME280;28252;53.336;-6.298;2023-03-18T00:07:21;99445.56;;;22.41;100.00
42621;BME280;28252;53.336;-6.298;2023-03-18T00:07:57;99445.56;;;22.41;100.00
42621;BME280;28252;53.336;-6.298;2023-03-18T00:08:33;99446.59;;;22.40;100.00
42621;BME280;28252;53.336;-6.298;2023-03-18T00:09:12;99453.69;;;22.41;100.00
42621;BME280;28252;53.336;-6.298;2023-03-18T00:09:43;99449.31;;;22.40;100.00
42621;BME280;28252;53.336;-6.298;2023-03-18T00:10:20;99450.38;;;22.39;100.00
42621;BME280;28252;53.336;-6.298;2023-03-18T00:10:53;99450.38;;;22.39;100.00
42621;BME280;28252;53.336;-6.298;2023-03-18T00:11:24;99449.31;;;22.40;100.00
42621;BME280;28252;53.336;-6.298;2023-03-18T00:12:03;99449.53;;;22.38;100.00
42621;BME280;28252;53.336;-6.298;2023-03-18T00:12:37;99451.41;;;22.38;100.00
42621;BME280;28252;53.336;-6.298;2023-03-18T00:13:10;99449.72;;;22.37;100.00
42621;BME280;28252;53.336;-6.298;2023-03-18T00:13:43;99455.16;;;22.37;100.00
42621;BME280;28252;53.336;-6.298;2023-03-18T00:14:14;99454.34;;;22.36;100.00
42621;BME280;28252;53.336;-6.298;2023-03-18T00:14:49;99453.50;;;22.36;100.00
42621;BME280;28252;53.336;-6.298;2023-03-18T00:15:20;99452.66;;;22.35;100.00
42621;BME280;28252;53.336;-6.298;2023-03-18T00:15:56;99451.84;;;22.35;100.00
42621;BME280;28252;53.336;-6.298;2023-03-18T00:16:31;99449.13;;;22.35;100.00
42621;BME280;28252;53.336;-6.298;2023-03-18T00:17:04;99459.16;;;22.34;100.00
42621;BME280;28252;53.336;-6.298;2023-03-18T00:17:37;99454.75;;;22.33;100.00
42621;BME280;28252;53.336;-6.298;2023-03-18T00:18:11;99453.72;;;22.34;100.00
42621;BME280;28252;53.336;-6.298;2023-03-18T00:18:46;99452.91;;;22.34;100.00
42621;BME280;28252;53.336;-6.298;2023-03-18T00:19:37;99455.63;;;22.34;100.00
42621;BME280;28252;53.336;-6.298;2023-03-18T00:20:08;99458.34;;;22.34;100.00
42621;BME280;28252;53.336;-6.298;2023-03-18T00:20:42;99461.03;;;22.34;100.00
42621;BME280;28252;53.336;-6.298;2023-03-18T00:21:17;99461.03;;;22.34;100.00
42621;BME280;28252;53.336;-6.298;2023-03-18T00:21:48;99458.53;;;22.32;100.00
42621;BME280;28252;53.336;-6.298;2023-03-18T00:22:21;99460.19;;;22.33;100.00
42621;BME280;28252;53.336;-6.298;2023-03-18T00:22:58;99462.91;;;22.33;100.00
42621;BME280;28252;53.336;-6.298;2023-03-18T00:23:32;99454.75;;;22.33;100.00
42621;BME280;28252;53.336;-6.298;2023-03-18T00:24:08;99464.78;;;22.33;100.00
42621;BME280;28252;53.336;-6.298;2023-03-18T00:24:41;99463.97;;;22.32;100.00
42621;BME280;28252;53.336;-6.298;2023-03-18T00:25:13;99463.97;;;22.32;100.00
42621;BME280;28252;53.336;-6.298;2023-03-18T00:25:47;99453.31;;;22.31;100.00
42621;BME280;28252;53.336;-6.298;2023-03-18T00:26:20;99465.22;;;22.30;100.00
42621;BME280;28252;53.336;-6.298;2023-03-18T00:26:58;99461.47;;;22.31;100.00
42621;BME280;28252;53.336;-6.298;2023-03-18T00:27:32;99461.47;;;22.31;100.00
42621;BME280;28252;53.336;-6.298;2023-03-18T00:28:06;99461.47;;;22.31;100.00
42621;BME280;28252;53.336;-6.298;2023-03-18T00:28:42;99466.88;;;22.31;100.00
42621;BME280;28252;53.336;-6.298;2023-03-18T00:29:17;99468.75;;;22.30;100.00
42621;BME280;28252;53.336;-6.298;2023-03-18T00:29:51;99466.03;;;22.30;100.00
42621;BME280;28252;53.336;-6.298;2023-03-18T00:30:27;99469.81;;;22.29;100.00
42621;BME280;28252;53.336;-6.298;2023-03-18T00:31:07;99471.69;;;22.29;100.00
42621;BME280;28252;53.336;-6.298;2023-03-18T00:31:46;99474.41;;;22.29;100.00
42621;BME280;28252;53.336;-6.298;2023-03-18T00:32:19;99477.13;;;22.29;100.00
42621;BME280;28252;53.336;-6.298;2023-03-18T00:32:56;99471.88;;;22.27;100.00
42621;BME280;28252;53.336;-6.298;2023-03-18T00:33:32;99474.41;;;22.29;100.00
42621;BME280;28252;53.336;-6.298;2023-03-18T00:34:03;99473.56;;;22.28;100.00
42621;BME280;28252;53.336;-6.298;2023-03-18T00:34:34;99467.31;;;22.28;100.00
42621;BME280;28252;53.336;-6.298;2023-03-18T00:35:05;99470.03;;;22.28;100.00
42621;BME280;28252;53.336;-6.298;2023-03-18T00:35:39;99475.44;;;22.28;100.00
42621;BME280;28252;53.336;-6.298;2023-03-18T00:36:15;99476.28;;;22.28;100.00
42621;BME280;28252;53.336;-6.298;2023-03-18T00:36:53;99472.72;;;22.28;100.00
42621;BME280;28252;53.336;-6.298;2023-03-18T00:37:30;99478.16;;;22.28;100.00
42621;BME280;28252;53.336;-6.298;2023-03-18T00:38:04;99467.31;;;22.28;100.00
42621;BME280;28252;53.336;-6.298;2023-03-18T00:38:37;99474.81;;;22.26;100.00
42621;BME280;28252;53.336;-6.298;2023-03-18T00:39:10;99472.09;;;22.26;100.00
42621;BME280;28252;53.336;-6.298;2023-03-18T00:39:45;99474.81;;;22.26;100.00
42621;BME280;28252;53.336;-6.298;2023-03-18T00:40:21;99473.13;;;22.25;100.00
42621;BME280;28252;53.336;-6.298;2023-03-18T00:40:59;99473.13;;;22.25;100.00
42621;BME280;28252;53.336;-6.298;2023-03-18T00:41:50;99473.13;;;22.25;100.00
42621;BME280;28252;53.336;-6.298;2023-03-18T00:42:27;99478.56;;;22.25;100.00
42621;BME280;28252;53.336;-6.298;2023-03-18T00:43:13;99476.91;;;22.24;100.00
42621;BME280;28252;53.336;-6.298;2023-03-18T00:43:48;99479.63;;;22.24;100.00
42621;BME280;28252;53.336;-6.298;2023-03-18T00:44:22;99474.19;;;22.24;100.00
42621;BME280;28252;53.336;-6.298;2023-03-18T00:45:02;99477.94;;;22.23;100.00
42621;BME280;28252;53.336;-6.298;2023-03-18T00:45:39;99477.13;;;22.22;100.00
42621;BME280;28252;53.336;-6.298;2023-03-18T00:46:16;99473.34;;;22.23;100.00
42621;BME280;28252;53.336;-6.298;2023-03-18T00:46:47;99479.81;;;22.22;100.00
42621;BME280;28252;53.336;-6.298;2023-03-18T00:47:25;99481.69;;;22.22;100.00
42621;BME280;28252;53.336;-6.298;2023-03-18T00:48:01;99481.69;;;22.22;100.00
42621;BME280;28252;53.336;-6.298;2023-03-18T00:48:33;99482.75;;;22.20;100.00
42621;BME280;28252;53.336;-6.298;2023-03-18T00:49:08;99483.56;;;22.21;100.00
42621;BME280;28252;53.336;-6.298;2023-03-18T00:49:42;99480.03;;;22.20;100.00
42621;BME280;28252;53.336;-6.298;2023-03-18T00:50:13;99475.66;;;22.19;100.00
42621;BME280;28252;53.336;-6.298;2023-03-18T00:50:49;99481.88;;;22.20;100.00
42621;BME280;28252;53.336;-6.298;2023-03-18T00:51:23;99478.34;;;22.19;100.00
42621;BME280;28252;53.336;-6.298;2023-03-18T00:51:57;99486.50;;;22.19;100.00
42621;BME280;28252;53.336;-6.298;2023-03-18T00:52:33;99484.81;;;22.18;100.00
42621;BME280;28252;53.336;-6.298;2023-03-18T00:53:04;99481.06;;;22.19;100.00
42621;BME280;28252;53.336;-6.298;2023-03-18T00:53:35;99476.69;;;22.18;100.00
42621;BME280;28252;53.336;-6.298;2023-03-18T00:54:11;99487.53;;;22.18;100.00
42621;BME280;28252;53.336;-6.298;2023-03-18T00:54:43;99484.81;;;22.18;100.00
42621;BME280;28252;53.336;-6.298;2023-03-18T00:55:14;99479.38;;;22.18;100.00
42621;BME280;28252;53.336;-6.298;2023-03-18T00:55:52;99473.97;;;22.18;100.00
42621;BME280;28252;53.336;-6.298;2023-03-18T00:56:27;99475.03;;;22.17;100.00
42621;BME280;28252;53.336;-6.298;2023-03-18T00:56:59;99473.16;;;22.18;100.00
42621;BME280;28252;53.336;-6.298;2023-03-18T00:57:32;99477.75;;;22.17;100.00
42621;BME280;28252;53.336;-6.298;2023-03-18T00:58:05;99476.91;;;22.17;100.00
42621;BME280;28252;53.336;-6.298;2023-03-18T00:58:39;99473.34;;;22.16;100.00
42621;BME280;28252;53.336;-6.298;2023-03-18T00:59:12;99476.06;;;22.16;100.00
42621;BME280;28252;53.336;-6.298;2023-03-18T00:59:47;99469.81;;;22.16;100.00
42621;BME280;28252;53.336;-6.298;2023-03-18T01:00:20;99474.41;;;22.15;100.00
42621;BME280;28252;53.336;-6.298;2023-03-18T01:00:53;99476.06;;;22.16;100.00
42621;BME280;28252;53.336;-6.298;2023-03-18T01:01:27;99480.88;;;22.14;100.00
42621;BME280;28252;53.336;-6.298;2023-03-18T01:01:58;99482.56;;;22.15;100.00
42621;BME280;28252;53.336;-6.298;2023-03-18T01:02:34;99472.75;;;22.14;100.00
42621;BME280;28252;53.336;-6.298;2023-03-18T01:03:06;99486.28;;;22.14;100.00
42621;BME280;28252;53.336;-6.298;2023-03-18T01:03:40;99489.00;;;22.14;100.00
42621;BME280;28252;53.336;-6.298;2023-03-18T01:04:16;99476.47;;;22.13;100.00
42621;BME280;28252;53.336;-6.298;2023-03-18T01:04:47;99480.06;;;22.14;100.00
42621;BME280;28252;53.336;-6.298;2023-03-18T01:05:21;99479.19;;;22.13;100.00
42621;BME280;28252;53.336;-6.298;2023-03-18T01:05:57;99482.75;;;22.14;100.00
42621;BME280;28252;53.336;-6.298;2023-03-18T01:06:32;99479.19;;;22.13;100.00
42621;BME280;28252;53.336;-6.298;2023-03-18T01:07:06;99484.63;;;22.13;100.00
42621;BME280;28252;53.336;-6.298;2023-03-18T01:07:39;99484.63;;;22.13;100.00
42621;BME280;28252;53.336;-6.298;2023-03-18T01:08:18;99480.25;;;22.12;100.00
42621;BME280;28252;53.336;-6.298;2023-03-18T01:08:54;99481.09;;;22.13;100.00
42621;BME280;28252;53.336;-6.298;2023-03-18T01:09:32;99481.91;;;22.13;100.00
42621;BME280;28252;53.336;-6.298;2023-03-18T01:10:06;99482.16;;;22.12;100.00
42621;BME280;28252;53.336;-6.298;2023-03-18T01:10:37;99479.44;;;22.12;100.00
42621;BME280;28252;53.336;-6.298;2023-03-18T01:11:10;99479.44;;;22.12;100.00
42621;BME280;28252;53.336;-6.298;2023-03-18T01:11:49;99484.00;;;22.11;100.00
42621;BME280;28252;53.336;-6.298;2023-03-18T01:12:22;99482.16;;;22.12;100.00
42621;BME280;28252;53.336;-6.298;2023-03-18T01:12:57;99492.13;;;22.11;100.00
42621;BME280;28252;53.336;-6.298;2023-03-18T01:13:38;99482.34;;;22.10;100.00
42621;BME280;28252;53.336;-6.298;2023-03-18T01:14:10;99485.91;;;22.11;100.00
42621;BME280;28252;53.336;-6.298;2023-03-18T01:14:42;99484.22;;;22.10;100.00
42621;BME280;28252;53.336;-6.298;2023-03-18T01:15:15;99482.34;;;22.10;100.00
42621;BME280;28252;53.336;-6.298;2023-03-18T01:15:52;99486.09;;;22.09;100.00
42621;BME280;28252;53.336;-6.298;2023-03-18T01:16:28;99475.47;;;22.08;100.00
42621;BME280;28252;53.336;-6.298;2023-03-18T01:16:59;99481.72;;;22.08;100.00
42621;BME280;28252;53.336;-6.298;2023-03-18T01:17:37;99489.63;;;22.10;100.00
42621;BME280;28252;53.336;-6.298;2023-03-18T01:18:08;99481.72;;;22.08;100.00
42621;BME280;28252;53.336;-6.298;2023-03-18T01:18:41;99484.44;;;22.08;100.00
42621;BME280;28252;53.336;-6.298;2023-03-18T01:19:12;99483.59;;;22.08;100.00
42621;BME280;28252;53.336;-6.298;2023-03-18T01:19:48;99478.19;;;22.08;100.00
42621;BME280;28252;53.336;-6.298;2023-03-18T01:20:19;99482.16;;;22.05;100.00
42621;BME280;28252;53.336;-6.298;2023-03-18T01:20:57;99484.88;;;22.05;100.00
42621;BME280;28252;53.336;-6.298;2023-03-18T01:21:31;99484.03;;;22.05;100.00
42621;BME280;28252;53.336;-6.298;2023-03-18T01:22:05;99485.69;;;22.06;100.00
42621;BME280;28252;53.336;-6.298;2023-03-18T01:22:45;99481.31;;;22.05;100.00
42621;BME280;28252;53.336;-6.298;2023-03-18T01:23:16;99484.03;;;22.05;100.00
42621;BME280;28252;53.336;-6.298;2023-03-18T01:23:52;99486.53;;;22.06;100.00
42621;BME280;28252;53.336;-6.298;2023-03-18T01:24:26;99488.41;;;22.06;100.00
42621;BME280;28252;53.336;-6.298;2023-03-18T01:24:57;99484.03;;;22.05;100.00
42621;BME280;28252;53.336;-6.298;2023-03-18T01:25:34;99484.03;;;22.05;100.00
42621;BME280;28252;53.336;-6.298;2023-03-18T01:26:10;99481.31;;;22.05;100.00
42621;BME280;28252;53.336;-6.298;2023-03-18T01:31:17;99483.63;;;22.01;100.00
42621;BME280;28252;53.336;-6.298;2023-03-18T01:31:54;99483.63;;;22.01;100.00
42621;BME280;28252;53.336;-6.298;2023-03-18T01:32:35;99484.47;;;22.01;100.00
42621;BME280;28252;53.336;-6.298;2023-03-18T01:33:06;99485.72;;;21.99;100.00
42621;BME280;28252;53.336;-6.298;2023-03-18T01:33:41;99487.38;;;22.00;100.00
42621;BME280;28252;53.336;-6.298;2023-03-18T01:34:15;99486.53;;;21.99;100.00
42621;BME280;28252;53.336;-6.298;2023-03-18T01:34:55;99489.25;;;21.99;100.00
42621;BME280;28252;53.336;-6.298;2023-03-18T01:35:30;99491.13;;;21.99;100.00
42621;BME280;28252;53.336;-6.298;2023-03-18T01:36:04;99491.13;;;21.99;100.00
42621;BME280;28252;53.336;-6.298;2023-03-18T01:36:43;99492.16;;;21.98;100.00
42621;BME280;28252;53.336;-6.298;2023-03-18T01:37:17;99490.31;;;21.98;100.00
42621;BME280;28252;53.336;-6.298;2023-03-18T01:37:59;99494.06;;;21.97;100.00
42621;BME280;28252;53.336;-6.298;2023-03-18T01:38:34;99499.47;;;21.97;100.00
42621;BME280;28252;53.336;-6.298;2023-03-18T01:39:20;99494.88;;;21.98;100.00
42621;BME280;28252;53.336;-6.298;2023-03-18T01:39:54;99494.88;;;21.98;100.00
42621;BME280;28252;53.336;-6.298;2023-03-18T01:41:34;99498.84;;;21.95;100.00
42621;BME280;28252;53.336;-6.298;2023-03-18T01:42:11;99493.44;;;21.95;100.00
42621;BME280;28252;53.336;-6.298;2023-03-18T01:42:51;99489.91;;;21.95;100.00
42621;BME280;28252;53.336;-6.298;2023-03-18T01:43:30;99496.16;;;21.95;100.00
42621;BME280;28252;53.336;-6.298;2023-03-18T01:44:09;99491.97;;;21.93;100.00
42621;BME280;28252;53.336;-6.298;2023-03-18T01:44:45;99500.75;;;21.95;100.00
42621;BME280;28252;53.336;-6.298;2023-03-18T01:46:00;99500.75;;;21.95;100.00
42621;BME280;28252;53.336;-6.298;2023-03-18T01:46:36;99499.06;;;21.94;100.00
42621;BME280;28252;53.336;-6.298;2023-03-18T01:47:10;99501.97;;;21.92;100.00
42621;BME280;28252;53.336;-6.298;2023-03-18T01:47:47;99502.81;;;21.93;100.00
42621;BME280;28252;53.336;-6.298;2023-03-18T01:48:21;99502.81;;;21.93;100.00
42621;BME280;28252;53.336;-6.298;2023-03-18T01:48:54;99495.75;;;21.92;100.00
42621;BME280;28252;53.336;-6.298;2023-03-18T01:49:45;99499.47;;;21.91;100.00
42621;BME280;28252;53.336;-6.298;2023-03-18T01:50:25;99501.16;;;21.92;100.00
42621;BME280;28252;53.336;-6.298;2023-03-18T01:51:00;99498.44;;;21.92;100.00
42621;BME280;28252;53.336;-6.298;2023-03-18T01:51:36;99504.91;;;21.91;100.00
42621;BME280;28252;53.336;-6.298;2023-03-18T01:52:54;99503.25;;;21.90;100.00
42621;BME280;28252;53.336;-6.298;2023-03-18T01:53:33;99499.47;;;21.91;100.00
42621;BME280;28252;53.336;-6.298;2023-03-18T01:54:10;99500.53;;;21.90;100.00
42621;BME280;28252;53.336;-6.298;2023-03-18T01:54:52;99508.69;;;21.90;100.00
42621;BME280;28252;53.336;-6.298;2023-03-18T01:55:31;99501.38;;;21.90;100.00
42621;BME280;28252;53.336;-6.298;2023-03-18T01:56:06;99500.53;;;21.90;100.00
42621;BME280;28252;53.336;-6.298;2023-03-18T01:56:37;99498.88;;;21.89;100.00
42621;BME280;28252;53.336;-6.298;2023-03-18T01:57:12;99501.56;;;21.89;100.00
42621;BME280;28252;53.336;-6.298;2023-03-18T01:57:47;99501.56;;;21.89;100.00
42621;BME280;28252;53.336;-6.298;2023-03-18T01:58:28;99504.28;;;21.89;100.00
42621;BME280;28252;53.336;-6.298;2023-03-18T01:59:09;99499.91;;;21.88;100.00
42621;BME280;28252;53.336;-6.298;2023-03-18T01:59:43;99500.75;;;21.88;100.00
42621;BME280;28252;53.336;-6.298;2023-03-18T02:00:20;99502.59;;;21.88;100.00
42621;BME280;28252;53.336;-6.298;2023-03-18T02:00:58;99505.31;;;21.88;100.00
42621;BME280;28252;53.336;-6.298;2023-03-18T02:01:35;99508.22;;;21.86;100.00
42621;BME280;28252;53.336;-6.298;2023-03-18T02:02:12;99509.09;;;21.87;100.00
42621;BME280;28252;53.336;-6.298;2023-03-18T02:02:46;99500.97;;;21.87;100.00
42621;BME280;28252;53.336;-6.298;2023-03-18T02:03:25;99511.81;;;21.87;100.00
42621;BME280;28252;53.336;-6.298;2023-03-18T02:03:59;99514.50;;;21.87;100.00
42621;BME280;28252;53.336;-6.298;2023-03-18T02:04:37;99505.75;;;21.85;100.00
42621;BME280;28252;53.336;-6.298;2023-03-18T02:05:15;99512.00;;;21.85;100.00
42621;BME280;28252;53.336;-6.298;2023-03-18T02:05:48;99512.00;;;21.85;100.00
42621;BME280;28252;53.336;-6.298;2023-03-18T02:06:20;99513.91;;;21.85;100.00
42621;BME280;28252;53.336;-6.298;2023-03-18T02:07:04;99511.19;;;21.85;100.00
42621;BME280;28252;53.336;-6.298;2023-03-18T02:07:40;99509.50;;;21.83;100.00
42621;BME280;28252;53.336;-6.298;2023-03-18T02:08:14;99518.47;;;21.84;100.00
42621;BME280;28252;53.336;-6.298;2023-03-18T02:08:48;99514.94;;;21.83;100.00
42621;BME280;28252;53.336;-6.298;2023-03-18T02:09:24;99510.53;;;21.82;100.00
42621;BME280;28252;53.336;-6.298;2023-03-18T02:10:01;99514.94;;;21.83;100.00
42621;BME280;28252;53.336;-6.298;2023-03-18T02:10:35;99510.53;;;21.82;100.00
42621;BME280;28252;53.336;-6.298;2023-03-18T02:11:09;99507.81;;;21.82;100.00
42621;BME280;28252;53.336;-6.298;2023-03-18T02:11:42;99512.41;;;21.82;100.00
42621;BME280;28252;53.336;-6.298;2023-03-18T02:12:15;99512.41;;;21.82;100.00
42621;BME280;28252;53.336;-6.298;2023-03-18T02:12:59;99517.84;;;21.82;100.00
42621;BME280;28252;53.336;-6.298;2023-03-18T02:13:40;99509.91;;;21.80;100.00
42621;BME280;28252;53.336;-6.298;2023-03-18T02:14:17;99514.31;;;21.81;100.00
42621;BME280;28252;53.336;-6.298;2023-03-18T02:14:55;99521.59;;;21.81;100.00
42621;BME280;28252;53.336;-6.298;2023-03-18T02:15:29;99519.94;;;21.80;100.00
42621;BME280;28252;53.336;-6.298;2023-03-18T02:16:04;99519.94;;;21.80;100.00
42621;BME280;28252;53.336;-6.298;2023-03-18T02:16:47;99519.09;;;21.79;100.00
42621;BME280;28252;53.336;-6.298;2023-03-18T02:17:24;99522.84;;;21.78;100.00
42621;BME280;28252;53.336;-6.298;2023-03-18T02:18:19;99522.84;;;21.78;100.00
42621;BME280;28252;53.336;-6.298;2023-03-18T02:18:51;99518.25;;;21.79;100.00
42621;BME280;28252;53.336;-6.298;2023-03-18T02:20:59;99520.97;;;21.79;100.00
42621;BME280;28252;53.336;-6.298;2023-03-18T02:21:45;99520.16;;;21.78;100.00
42621;BME280;28252;53.336;-6.298;2023-03-18T02:22:43;99524.75;;;21.78;100.00
42621;BME280;28252;53.336;-6.298;2023-03-18T02:25:50;99530.38;;;21.76;100.00
42621;BME280;28252;53.336;-6.298;2023-03-18T02:27:24;99534.09;;;21.75;100.00
42621;BME280;28252;53.336;-6.298;2023-03-18T02:28:05;99527.84;;;21.75;100.00
42621;BME280;28252;53.336;-6.298;2023-03-18T02:28:37;99532.47;;;21.74;100.00
42621;BME280;28252;53.336;-6.298;2023-03-18T02:29:13;99532.47;;;21.74;100.00
42621;BME280;28252;53.336;-6.298;2023-03-18T02:30:02;99537.03;;;21.74;100.00
42621;BME280;28252;53.336;-6.298;2023-03-18T02:30:41;99527.03;;;21.74;100.00
42621;BME280;28252;53.336;-6.298;2023-03-18T02:31:17;99537.03;;;21.74;100.00
42621;BME280;28252;53.336;-6.298;2023-03-18T02:31:54;99529.09;;;21.72;100.00
42621;BME280;28252;53.336;-6.298;2023-03-18T02:32:28;99531.81;;;21.72;100.00
42621;BME280;28252;53.336;-6.298;2023-03-18T02:33:08;99529.09;;;21.72;100.00
42621;BME280;28252;53.336;-6.298;2023-03-18T02:33:41;99534.50;;;21.72;100.00
42621;BME280;28252;53.336;-6.298;2023-03-18T02:34:17;99530.97;;;21.72;100.00
42621;BME280;28252;53.336;-6.298;2023-03-18T02:34:54;99532.88;;;21.71;100.00
42621;BME280;28252;53.336;-6.298;2023-03-18T02:35:28;99530.16;;;21.71;100.00
42621;BME280;28252;53.336;-6.298;2023-03-18T02:36:06;99536.59;;;21.70;100.00
42621;BME280;28252;53.336;-6.298;2023-03-18T02:36:47;99528.47;;;21.70;100.00
42621;BME280;28252;53.336;-6.298;2023-03-18T02:37:18;99534.97;;;21.69;100.00
42621;BME280;28252;53.336;-6.298;2023-03-18T02:37:51;99534.09;;;21.69;100.00
42621;BME280;28252;53.336;-6.298;2023-03-18T02:38:27;99534.09;;;21.69;100.00
42621;BME280;28252;53.336;-6.298;2023-03-18T02:39:06;99534.97;;;21.69;100.00
42621;BME280;28252;53.336;-6.298;2023-03-18T02:39:43;99533.28;;;21.68;100.00
42621;BME280;28252;53.336;-6.298;2023-03-18T02:40:23;99528.88;;;21.67;100.00
42621;BME280;28252;53.336;-6.298;2023-03-18T02:41:00;99537.03;;;21.67;100.00
42621;BME280;28252;53.336;-6.298;2023-03-18T02:41:40;99536.00;;;21.68;100.00
42621;BME280;28252;53.336;-6.298;2023-03-18T02:42:27;99538.06;;;21.66;100.00
42621;BME280;28252;53.336;-6.298;2023-03-18T02:43:13;99535.38;;;21.66;100.00
42621;BME280;28252;53.336;-6.298;2023-03-18T02:43:48;99537.22;;;21.66;100.00
42621;BME280;28252;53.336;-6.298;2023-03-18T02:44:22;99541.63;;;21.67;100.00
42621;BME280;28252;53.336;-6.298;2023-03-18T02:45:34;99539.09;;;21.65;100.00
42621;BME280;28252;53.336;-6.298;2023-03-18T02:46:32;99543.69;;;21.64;100.00
42621;BME280;28252;53.336;-6.298;2023-03-18T02:47:10;99542.03;;;21.63;100.00
42621;BME280;28252;53.336;-6.298;2023-03-18T02:47:43;99537.47;;;21.64;100.00
42621;BME280;28252;53.336;-6.298;2023-03-18T02:48:16;99548.31;;;21.64;100.00
42621;BME280;28252;53.336;-6.298;2023-03-18T02:48:50;99545.59;;;21.64;100.00
42621;BME280;28252;53.336;-6.298;2023-03-18T02:49:25;99541.19;;;21.63;100.00
42621;BME280;28252;53.336;-6.298;2023-03-18T02:50:00;99538.50;;;21.63;100.00
42621;BME280;28252;53.336;-6.298;2023-03-18T02:50:46;99544.72;;;21.63;100.00
42621;BME280;28252;53.336;-6.298;2023-03-18T02:51:22;99534.09;;;21.62;100.00
42621;BME280;28252;53.336;-6.298;2023-03-18T02:51:58;99536.81;;;21.62;100.00
42621;BME280;28252;53.336;-6.298;2023-03-18T02:52:32;99536.81;;;21.62;100.00
42621;BME280;28252;53.336;-6.298;2023-03-18T02:53:10;99539.53;;;21.62;100.00
42621;BME280;28252;53.336;-6.298;2023-03-18T02:53:44;99537.88;;;21.61;100.00
42621;BME280;28252;53.336;-6.298;2023-03-18T02:54:22;99538.06;;;21.59;100.00
42621;BME280;28252;53.336;-6.298;2023-03-18T02:54:56;99543.28;;;21.61;100.00
42621;BME280;28252;53.336;-6.298;2023-03-18T02:55:34;99544.31;;;21.60;100.00
42621;BME280;28252;53.336;-6.298;2023-03-18T02:56:13;99540.78;;;21.59;100.00
42621;BME280;28252;53.336;-6.298;2023-03-18T02:56:49;99545.34;;;21.59;100.00
42621;BME280;28252;53.336;-6.298;2023-03-18T02:57:23;99549.75;;;21.60;100.00
42621;BME280;28252;53.336;-6.298;2023-03-18T02:57:58;99539.09;;;21.58;100.00
42621;BME280;28252;53.336;-6.298;2023-03-18T02:58:31;99548.28;;;21.57;100.00
42621;BME280;28252;53.336;-6.298;2023-03-18T02:59:10;99543.69;;;21.58;100.00
42621;BME280;28252;53.336;-6.298;2023-03-18T02:59:46;99550.16;;;21.57;100.00
42621;BME280;28252;53.336;-6.298;2023-03-18T03:00:17;99546.59;;;21.56;100.00
42621;BME280;28252;53.336;-6.298;2023-03-18T03:00:50;99544.72;;;21.57;100.00
42621;BME280;28252;53.336;-6.298;2023-03-18T03:01:23;99556.63;;;21.56;100.00
42621;BME280;28252;53.336;-6.298;2023-03-18T03:01:57;99556.63;;;21.56;100.00
42621;BME280;28252;53.336;-6.298;2023-03-18T03:02:35;99553.91;;;21.56;100.00
42621;BME280;28252;53.336;-6.298;2023-03-18T03:03:09;99560.38;;;21.55;100.00
42621;BME280;28252;53.336;-6.298;2023-03-18T03:03:45;99553.06;;;21.55;100.00
42621;BME280;28252;53.336;-6.298;2023-03-18T03:04:20;99561.19;;;21.55;100.00
42621;BME280;28252;53.336;-6.298;2023-03-18T03:04:54;99562.03;;;21.56;100.00
42621;BME280;28252;53.336;-6.298;2023-03-18T03:05:25;99560.38;;;21.55;100.00
42621;BME280;28252;53.336;-6.298;2023-03-18T03:05:59;99565.78;;;21.55;100.00
42621;BME280;28252;53.336;-6.298;2023-03-18T03:06:34;99562.25;;;21.54;100.00
42621;BME280;28252;53.336;-6.298;2023-03-18T03:07:10;99559.75;;;21.53;100.00
42621;BME280;28252;53.336;-6.298;2023-03-18T03:07:49;99557.03;;;21.53;100.00
42621;BME280;28252;53.336;-6.298;2023-03-18T03:08:27;99565.16;;;21.53;100.00
42621;BME280;28252;53.336;-6.298;2023-03-18T03:09:04;99562.44;;;21.53;100.00
42621;BME280;28252;53.336;-6.298;2023-03-18T03:09:41;99566.19;;;21.52;100.00
42621;BME280;28252;53.336;-6.298;2023-03-18T03:10:25;99555.34;;;21.52;100.00
42621;BME280;28252;53.336;-6.298;2023-03-18T03:10:58;99559.13;;;21.51;100.00
42621;BME280;28252;53.336;-6.298;2023-03-18T03:11:34;99564.53;;;21.51;100.00
42621;BME280;28252;53.336;-6.298;2023-03-18T03:12:18;99562.84;;;21.50;100.00
42621;BME280;28252;53.336;-6.298;2023-03-18T03:12:55;99556.63;;;21.49;100.00
42621;BME280;28252;53.336;-6.298;2023-03-18T03:13:30;99564.53;;;21.51;100.00
42621;BME280;28252;53.336;-6.298;2023-03-18T03:14:08;99562.03;;;21.49;100.00
42621;BME280;28252;53.336;-6.298;2023-03-18T03:14:40;99562.03;;;21.49;100.00
42621;BME280;28252;53.336;-6.298;2023-03-18T03:15:13;99562.84;;;21.50;100.00
42621;BME280;28252;53.336;-6.298;2023-03-18T03:15:49;99567.44;;;21.49;100.00
42621;BME280;28252;53.336;-6.298;2023-03-18T03:16:20;99565.78;;;21.48;100.00
42621;BME280;28252;53.336;-6.298;2023-03-18T03:16:52;99570.38;;;21.48;100.00
42621;BME280;28252;53.336;-6.298;2023-03-18T03:17:27;99565.78;;;21.48;100.00
42621;BME280;28252;53.336;-6.298;2023-03-18T03:18:01;99564.94;;;21.48;100.00